sensor_id;sensor_type;location;lat;lon;timestamp;pressure;altitude;pressure_sealevel;temperature;humidity
73242;BME280;65659;49.234;-2.094;2023-04-21T00:00:11;100279.61;;;15.38;38.12
73242;BME280;65659;49.234;-2.094;2023-04-21T00:02:37;100278.24;;;15.30;38.21
73242;BME280;65659;49.234;-2.094;2023-04-21T00:05:00;100281.07;;;15.25;38.42
73242;BME280;65659;49.234;-2.094;2023-04-21T00:07:25;100280.90;;;15.16;38.62
73242;BME280;65659;49.234;-2.094;2023-04-21T00:09:50;100279.63;;;15.14;38.66
73242;BME280;65659;49.234;-2.094;2023-04-21T00:12:15;100274.31;;;15.09;38.54
73242;BME280;65659;49.234;-2.094;2023-04-21T00:14:40;100270.06;;;15.11;38.31
73242;BME280;65659;49.234;-2.094;2023-04-21T00:17:05;100268.25;;;15.06;38.37
73242;BME280;65659;49.234;-2.094;2023-04-21T00:19:30;100264.82;;;15.08;38.55
73242;BME280;65659;49.234;-2.094;2023-04-21T00:21:56;100264.45;;;15.12;38.55
73242;BME280;65659;49.234;-2.094;2023-04-21T00:24:21;100259.66;;;15.13;38.55
73242;BME280;65659;49.234;-2.094;2023-04-21T00:26:47;100254.67;;;15.12;38.68
73242;BME280;65659;49.234;-2.094;2023-04-21T00:29:12;100248.84;;;15.15;38.60
73242;BME280;65659;49.234;-2.094;2023-04-21T00:31:37;100248.21;;;14.70;38.48
73242;BME280;65659;49.234;-2.094;2023-04-21T00:34:02;100248.09;;;14.97;38.50
73242;BME280;65659;49.234;-2.094;2023-04-21T00:36:27;100244.47;;;15.17;38.59
73242;BME280;65659;49.234;-2.094;2023-04-21T00:38:52;100246.40;;;15.19;38.69
73242;BME280;65659;49.234;-2.094;2023-04-21T00:41:17;100240.88;;;15.17;38.71
73242;BME280;65659;49.234;-2.094;2023-04-21T00:46:07;100236.93;;;15.21;38.47
73242;BME280;65659;49.234;-2.094;2023-04-21T00:48:33;100230.48;;;15.19;38.48
73242;BME280;65659;49.234;-2.094;2023-04-21T00:50:58;100228.61;;;15.11;38.56
73242;BME280;65659;49.234;-2.094;2023-04-21T00:53:23;100224.53;;;15.27;38.69
73242;BME280;65659;49.234;-2.094;2023-04-21T00:55:49;100220.36;;;14.98;38.67
73242;BME280;65659;49.234;-2.094;2023-04-21T00:58:13;100218.87;;;15.09;38.76
73242;BME280;65659;49.234;-2.094;2023-04-21T01:00:38;100218.53;;;14.86;38.73
73242;BME280;65659;49.234;-2.094;2023-04-21T01:03:07;100215.28;;;15.05;38.58
73242;BME280;65659;49.234;-2.094;2023-04-21T01:05:30;100212.38;;;15.02;38.72
73242;BME280;65659;49.234;-2.094;2023-04-21T01:07:54;100206.54;;;14.93;38.78
73242;BME280;65659;49.234;-2.094;2023-04-21T01:10:20;100205.89;;;14.91;38.84
73242;BME280;65659;49.234;-2.094;2023-04-21T01:12:49;100198.16;;;14.89;39.03
73242;BME280;65659;49.234;-2.094;2023-04-21T01:15:13;100194.01;;;14.89;39.10
73242;BME280;65659;49.234;-2.094;2023-04-21T01:17:36;100193.94;;;15.11;39.25
73242;BME280;65659;49.234;-2.094;2023-04-21T01:20:01;100191.93;;;14.62;39.34
73242;BME280;65659;49.234;-2.094;2023-04-21T01:22:27;100190.77;;;14.74;39.43
73242;BME280;65659;49.234;-2.094;2023-04-21T01:24:52;100187.71;;;14.63;38.99
73242;BME280;65659;49.234;-2.094;2023-04-21T01:27:37;100189.60;;;15.15;38.80
73242;BME280;65659;49.234;-2.094;2023-04-21T01:29:43;100191.88;;;14.62;38.79
73242;BME280;65659;49.234;-2.094;2023-04-21T01:34:35;100188.67;;;14.67;38.80
73242;BME280;65659;49.234;-2.094;2023-04-21T01:36:59;100185.28;;;15.03;38.96
73242;BME280;65659;49.234;-2.094;2023-04-21T01:39:24;100181.62;;;14.73;39.17
73242;BME280;65659;49.234;-2.094;2023-04-21T01:41:49;100183.08;;;14.55;39.28
73242;BME280;65659;49.234;-2.094;2023-04-21T01:44:15;100185.03;;;14.59;39.41
73242;BME280;65659;49.234;-2.094;2023-04-21T01:46:40;100182.51;;;14.74;39.51
73242;BME280;65659;49.234;-2.094;2023-04-21T01:49:06;100181.55;;;14.40;39.57
73242;BME280;65659;49.234;-2.094;2023-04-21T01:51:31;100175.48;;;14.58;39.37
73242;BME280;65659;49.234;-2.094;2023-04-21T01:53:57;100170.64;;;14.42;39.32
73242;BME280;65659;49.234;-2.094;2023-04-21T01:56:22;100165.39;;;14.65;38.76
73242;BME280;65659;49.234;-2.094;2023-04-21T01:58:47;100159.21;;;14.35;38.65
73242;BME280;65659;49.234;-2.094;2023-04-21T02:01:18;100157.72;;;14.25;38.73
73242;BME280;65659;49.234;-2.094;2023-04-21T02:03:38;100156.36;;;14.21;38.95
73242;BME280;65659;49.234;-2.094;2023-04-21T02:06:09;100158.04;;;14.39;38.82
73242;BME280;65659;49.234;-2.094;2023-04-21T02:08:29;100152.19;;;14.42;38.21
73242;BME280;65659;49.234;-2.094;2023-04-21T02:10:55;100151.50;;;14.37;37.76
73242;BME280;65659;49.234;-2.094;2023-04-21T02:13:20;100150.21;;;14.35;37.80
73242;BME280;65659;49.234;-2.094;2023-04-21T02:15:45;100146.02;;;14.08;37.68
73242;BME280;65659;49.234;-2.094;2023-04-21T02:18:10;100141.67;;;14.13;37.42
73242;BME280;65659;49.234;-2.094;2023-04-21T02:23:02;100133.62;;;14.32;37.63
73242;BME280;65659;49.234;-2.094;2023-04-21T02:25:27;100133.39;;;14.34;37.71
73242;BME280;65659;49.234;-2.094;2023-04-21T02:27:53;100134.72;;;14.25;37.86
73242;BME280;65659;49.234;-2.094;2023-04-21T02:30:18;100133.49;;;14.31;37.62
73242;BME280;65659;49.234;-2.094;2023-04-21T02:32:43;100131.38;;;14.32;37.49
73242;BME280;65659;49.234;-2.094;2023-04-21T02:35:14;100128.54;;;14.31;37.34
73242;BME280;65659;49.234;-2.094;2023-04-21T02:37:36;100125.78;;;14.31;37.40
73242;BME280;65659;49.234;-2.094;2023-04-21T02:39:59;100122.24;;;14.31;37.67
73242;BME280;65659;49.234;-2.094;2023-04-21T02:42:24;100119.57;;;14.08;37.79
73242;BME280;65659;49.234;-2.094;2023-04-21T02:44:50;100117.65;;;14.28;37.77
73242;BME280;65659;49.234;-2.094;2023-04-21T02:47:15;100115.11;;;14.01;37.90
73242;BME280;65659;49.234;-2.094;2023-04-21T02:49:41;100114.10;;;13.76;38.00
73242;BME280;65659;49.234;-2.094;2023-04-21T02:52:06;100118.83;;;13.95;38.33
73242;BME280;65659;49.234;-2.094;2023-04-21T02:54:32;100121.41;;;13.88;38.56
73242;BME280;65659;49.234;-2.094;2023-04-21T02:56:57;100124.96;;;14.08;38.69
73242;BME280;65659;49.234;-2.094;2023-04-21T02:59:22;100118.98;;;13.91;38.64
73242;BME280;65659;49.234;-2.094;2023-04-21T03:01:47;100118.40;;;13.94;38.50
73242;BME280;65659;49.234;-2.094;2023-04-21T03:04:13;100116.75;;;14.17;38.83
73242;BME280;65659;49.234;-2.094;2023-04-21T03:06:38;100114.51;;;13.98;39.01
73242;BME280;65659;49.234;-2.094;2023-04-21T03:09:03;100111.59;;;14.14;39.19
73242;BME280;65659;49.234;-2.094;2023-04-21T03:11:29;100106.05;;;14.11;39.14
73242;BME280;65659;49.234;-2.094;2023-04-21T03:13:54;100106.48;;;13.84;39.26
73242;BME280;65659;49.234;-2.094;2023-04-21T03:16:19;100108.17;;;14.02;38.90
73242;BME280;65659;49.234;-2.094;2023-04-21T03:18:44;100109.40;;;14.19;38.55
73242;BME280;65659;49.234;-2.094;2023-04-21T03:21:10;100109.48;;;14.05;38.26
73242;BME280;65659;49.234;-2.094;2023-04-21T03:23:35;100108.16;;;14.32;38.30
73242;BME280;65659;49.234;-2.094;2023-04-21T03:26:06;100106.94;;;14.09;38.42
73242;BME280;65659;49.234;-2.094;2023-04-21T03:28:27;100105.32;;;14.06;38.56
73242;BME280;65659;49.234;-2.094;2023-04-21T03:30:52;100103.94;;;14.06;38.46
73242;BME280;65659;49.234;-2.094;2023-04-21T03:33:18;100099.05;;;13.99;38.34
73242;BME280;65659;49.234;-2.094;2023-04-21T03:35:44;100096.36;;;13.91;38.44
73242;BME280;65659;49.234;-2.094;2023-04-21T03:38:09;100092.57;;;14.10;38.54
73242;BME280;65659;49.234;-2.094;2023-04-21T03:40:35;100086.48;;;13.75;38.83
73242;BME280;65659;49.234;-2.094;2023-04-21T03:43:00;100086.95;;;14.07;38.86
73242;BME280;65659;49.234;-2.094;2023-04-21T03:45:26;100088.86;;;13.83;39.07
73242;BME280;65659;49.234;-2.094;2023-04-21T03:47:56;100089.05;;;13.83;39.11
73242;BME280;65659;49.234;-2.094;2023-04-21T03:50:17;100085.24;;;13.86;39.18
73242;BME280;65659;49.234;-2.094;2023-04-21T03:52:42;100085.00;;;13.95;39.13
73242;BME280;65659;49.234;-2.094;2023-04-21T03:55:08;100084.70;;;13.97;39.24
73242;BME280;65659;49.234;-2.094;2023-04-21T03:57:33;100082.72;;;13.71;39.29
73242;BME280;65659;49.234;-2.094;2023-04-21T03:59:59;100072.97;;;13.99;39.14
73242;BME280;65659;49.234;-2.094;2023-04-21T04:02:24;100072.45;;;14.00;39.11
73242;BME280;65659;49.234;-2.094;2023-04-21T04:04:50;100072.95;;;14.01;39.33
73242;BME280;65659;49.234;-2.094;2023-04-21T04:07:16;100072.79;;;14.03;39.33
73242;BME280;65659;49.234;-2.094;2023-04-21T04:09:40;100068.80;;;14.04;39.35
73242;BME280;65659;49.234;-2.094;2023-04-21T04:12:18;100068.88;;;13.96;39.27
73242;BME280;65659;49.234;-2.094;2023-04-21T04:14:31;100067.14;;;14.04;39.11
73242;BME280;65659;49.234;-2.094;2023-04-21T04:17:02;100062.02;;;14.03;39.32
73242;BME280;65659;49.234;-2.094;2023-04-21T04:19:22;100055.64;;;14.04;39.47
73242;BME280;65659;49.234;-2.094;2023-04-21T04:21:47;100057.90;;;13.94;39.68
73242;BME280;65659;49.234;-2.094;2023-04-21T04:24:13;100057.38;;;14.22;39.62
73242;BME280;65659;49.234;-2.094;2023-04-21T04:26:38;100058.96;;;13.74;39.54
73242;BME280;65659;49.234;-2.094;2023-04-21T04:29:03;100054.53;;;14.01;39.40
73242;BME280;65659;49.234;-2.094;2023-04-21T04:31:29;100049.16;;;14.03;39.30
73242;BME280;65659;49.234;-2.094;2023-04-21T04:33:55;100042.64;;;14.27;39.40
73242;BME280;65659;49.234;-2.094;2023-04-21T04:36:20;100038.09;;;13.77;39.45
73242;BME280;65659;49.234;-2.094;2023-04-21T04:38:46;100037.45;;;13.95;39.50
73242;BME280;65659;49.234;-2.094;2023-04-21T04:41:11;100030.82;;;14.19;39.11
73242;BME280;65659;49.234;-2.094;2023-04-21T04:43:37;100029.12;;;13.93;38.83
73242;BME280;65659;49.234;-2.094;2023-04-21T04:46:02;100027.85;;;13.88;38.61
73242;BME280;65659;49.234;-2.094;2023-04-21T04:48:27;100023.11;;;13.89;38.45
73242;BME280;65659;49.234;-2.094;2023-04-21T04:50:53;100022.36;;;13.82;38.47
73242;BME280;65659;49.234;-2.094;2023-04-21T04:53:18;100022.62;;;13.71;38.65
73242;BME280;65659;49.234;-2.094;2023-04-21T04:55:43;100022.09;;;13.72;38.16
73242;BME280;65659;49.234;-2.094;2023-04-21T04:58:08;100016.97;;;13.89;38.30
73242;BME280;65659;49.234;-2.094;2023-04-21T05:00:33;100017.06;;;13.66;38.57
73242;BME280;65659;49.234;-2.094;2023-04-21T05:02:59;100018.64;;;13.85;38.68
73242;BME280;65659;49.234;-2.094;2023-04-21T05:05:24;100017.86;;;13.56;38.60
73242;BME280;65659;49.234;-2.094;2023-04-21T05:07:50;100024.73;;;13.76;38.62
73242;BME280;65659;49.234;-2.094;2023-04-21T05:10:15;100026.51;;;13.51;38.59
73242;BME280;65659;49.234;-2.094;2023-04-21T05:12:40;100021.42;;;13.98;38.62
73242;BME280;65659;49.234;-2.094;2023-04-21T05:17:36;100026.76;;;13.53;38.86
73242;BME280;65659;49.234;-2.094;2023-04-21T05:19:56;100023.09;;;13.52;39.10
73242;BME280;65659;49.234;-2.094;2023-04-21T05:22:22;100021.33;;;13.56;39.32
73242;BME280;65659;49.234;-2.094;2023-04-21T05:24:47;100022.19;;;13.81;39.31
73242;BME280;65659;49.234;-2.094;2023-04-21T05:27:13;100025.00;;;13.38;39.30
73242;BME280;65659;49.234;-2.094;2023-04-21T05:29:38;100023.25;;;13.86;39.39
73242;BME280;65659;49.234;-2.094;2023-04-21T05:32:04;100022.63;;;13.63;39.76
73242;BME280;65659;49.234;-2.094;2023-04-21T05:34:29;100026.61;;;13.66;39.72
73242;BME280;65659;49.234;-2.094;2023-04-21T05:36:55;100028.64;;;13.93;39.61
73242;BME280;65659;49.234;-2.094;2023-04-21T05:39:20;100031.20;;;13.71;39.65
73242;BME280;65659;49.234;-2.094;2023-04-21T05:41:45;100029.82;;;13.98;39.53
73242;BME280;65659;49.234;-2.094;2023-04-21T05:44:11;100030.27;;;13.74;39.60
73242;BME280;65659;49.234;-2.094;2023-04-21T05:46:37;100027.85;;;13.81;39.58
73242;BME280;65659;49.234;-2.094;2023-04-21T05:49:02;100029.30;;;13.84;39.68
73242;BME280;65659;49.234;-2.094;2023-04-21T05:51:27;100034.99;;;14.03;39.65
73242;BME280;65659;49.234;-2.094;2023-04-21T05:53:52;100039.10;;;14.19;39.73
73242;BME280;65659;49.234;-2.094;2023-04-21T05:56:18;100037.74;;;14.38;39.75
73242;BME280;65659;49.234;-2.094;2023-04-21T05:58:43;100038.90;;;14.55;39.41
73242;BME280;65659;49.234;-2.094;2023-04-21T06:01:09;100038.28;;;14.55;39.43
73242;BME280;65659;49.234;-2.094;2023-04-21T06:03:34;100040.11;;;14.47;39.55
73242;BME280;65659;49.234;-2.094;2023-04-21T06:06:01;100037.54;;;14.47;39.52
73242;BME280;65659;49.234;-2.094;2023-04-21T06:08:25;100035.20;;;14.73;39.58
73242;BME280;65659;49.234;-2.094;2023-04-21T06:10:51;100032.71;;;14.25;39.37
73242;BME280;65659;49.234;-2.094;2023-04-21T06:13:16;100035.05;;;14.56;39.09
73242;BME280;65659;49.234;-2.094;2023-04-21T06:15:41;100032.66;;;14.55;38.82
73242;BME280;65659;49.234;-2.094;2023-04-21T06:18:07;100036.87;;;14.59;38.73
73242;BME280;65659;49.234;-2.094;2023-04-21T06:20:32;100038.76;;;14.65;38.52
73242;BME280;65659;49.234;-2.094;2023-04-21T06:22:58;100042.85;;;14.72;38.13
73242;BME280;65659;49.234;-2.094;2023-04-21T06:25:23;100045.17;;;14.78;37.65
73242;BME280;65659;49.234;-2.094;2023-04-21T06:27:49;100040.92;;;14.56;37.66
73242;BME280;65659;49.234;-2.094;2023-04-21T06:30:15;100041.29;;;14.63;37.75
73242;BME280;65659;49.234;-2.094;2023-04-21T06:32:40;100038.06;;;14.73;37.73
73242;BME280;65659;49.234;-2.094;2023-04-21T06:35:06;100037.14;;;14.84;37.93
73242;BME280;65659;49.234;-2.094;2023-04-21T06:37:31;100041.55;;;14.70;37.90
73242;BME280;65659;49.234;-2.094;2023-04-21T06:39:56;100035.57;;;14.78;37.88
73242;BME280;65659;49.234;-2.094;2023-04-21T06:42:22;100034.40;;;14.81;37.91
73242;BME280;65659;49.234;-2.094;2023-04-21T06:44:47;100031.66;;;14.89;37.55
73242;BME280;65659;49.234;-2.094;2023-04-21T06:47:13;100026.78;;;14.98;37.34
73242;BME280;65659;49.234;-2.094;2023-04-21T06:49:38;100022.66;;;14.79;37.35
73242;BME280;65659;49.234;-2.094;2023-04-21T06:52:03;100021.51;;;15.06;37.15
73242;BME280;65659;49.234;-2.094;2023-04-21T06:54:29;100020.75;;;14.91;37.03
73242;BME280;65659;49.234;-2.094;2023-04-21T06:56:54;100017.51;;;15.29;37.00
73242;BME280;65659;49.234;-2.094;2023-04-21T06:59:20;100016.16;;;14.96;36.91
73242;BME280;65659;49.234;-2.094;2023-04-21T07:01:45;100014.94;;;15.07;36.78
73242;BME280;65659;49.234;-2.094;2023-04-21T07:04:10;100011.75;;;14.90;36.51
73242;BME280;65659;49.234;-2.094;2023-04-21T07:06:36;100011.17;;;15.54;36.33
73242;BME280;65659;49.234;-2.094;2023-04-21T07:09:01;100007.90;;;15.70;36.28
73242;BME280;65659;49.234;-2.094;2023-04-21T07:11:27;100008.42;;;15.87;36.06
73242;BME280;65659;49.234;-2.094;2023-04-21T07:13:53;100004.60;;;15.52;35.79
73242;BME280;65659;49.234;-2.094;2023-04-21T07:16:19;100007.44;;;15.46;35.72
73242;BME280;65659;49.234;-2.094;2023-04-21T07:18:44;100006.82;;;15.98;35.46
73242;BME280;65659;49.234;-2.094;2023-04-21T07:21:09;100011.65;;;16.06;35.18
73242;BME280;65659;49.234;-2.094;2023-04-21T07:23:37;100009.91;;;15.92;34.57
73242;BME280;65659;49.234;-2.094;2023-04-21T07:26:02;100002.87;;;16.08;34.23
73242;BME280;65659;49.234;-2.094;2023-04-21T07:28:25;100002.04;;;15.47;33.99
73242;BME280;65659;49.234;-2.094;2023-04-21T07:30:51;100001.60;;;15.72;33.57
73242;BME280;65659;49.234;-2.094;2023-04-21T07:35:41;99999.49;;;16.43;32.97
73242;BME280;65659;49.234;-2.094;2023-04-21T07:38:06;99995.78;;;15.94;32.78
73242;BME280;65659;49.234;-2.094;2023-04-21T07:43:05;99998.83;;;15.70;33.11
73242;BME280;65659;49.234;-2.094;2023-04-21T07:45:37;99996.01;;;15.73;32.91
73242;BME280;65659;49.234;-2.094;2023-04-21T07:48:00;99988.76;;;15.89;32.78
73242;BME280;65659;49.234;-2.094;2023-04-21T07:50:16;99986.38;;;16.00;32.65
73242;BME280;65659;49.234;-2.094;2023-04-21T07:52:47;99986.02;;;16.10;32.64
73242;BME280;65659;49.234;-2.094;2023-04-21T07:55:11;99984.06;;;15.99;32.35
73242;BME280;65659;49.234;-2.094;2023-04-21T07:59:57;99982.20;;;15.65;33.00
73242;BME280;65659;49.234;-2.094;2023-04-21T08:02:23;99984.74;;;16.03;32.63
73242;BME280;65659;49.234;-2.094;2023-04-21T08:04:49;99984.00;;;16.57;32.13
73242;BME280;65659;49.234;-2.094;2023-04-21T08:07:14;99987.44;;;16.18;31.94
73242;BME280;65659;49.234;-2.094;2023-04-21T08:09:39;99983.19;;;16.29;31.90
73242;BME280;65659;49.234;-2.094;2023-04-21T08:12:11;99986.37;;;15.96;31.84
73242;BME280;65659;49.234;-2.094;2023-04-21T08:14:31;99983.92;;;16.69;31.47
73242;BME280;65659;49.234;-2.094;2023-04-21T08:16:57;99982.72;;;16.35;31.30
73242;BME280;65659;49.234;-2.094;2023-04-21T08:19:22;99980.14;;;16.62;31.15
73242;BME280;65659;49.234;-2.094;2023-04-21T08:21:46;99978.38;;;17.65;31.41
73242;BME280;65659;49.234;-2.094;2023-04-21T08:24:11;99977.70;;;17.64;32.89
73242;BME280;65659;49.234;-2.094;2023-04-21T08:26:38;99983.50;;;16.86;34.19
73242;BME280;65659;49.234;-2.094;2023-04-21T08:29:03;99981.55;;;16.22;34.89
73242;BME280;65659;49.234;-2.094;2023-04-21T08:31:30;99974.83;;;14.92;34.23
73242;BME280;65659;49.234;-2.094;2023-04-21T08:33:54;99969.06;;;15.73;33.34
73242;BME280;65659;49.234;-2.094;2023-04-21T08:36:20;99968.38;;;16.20;32.49
73242;BME280;65659;49.234;-2.094;2023-04-21T08:38:46;99964.45;;;16.17;31.78
73242;BME280;65659;49.234;-2.094;2023-04-21T08:41:11;99966.22;;;16.45;31.51
73242;BME280;65659;49.234;-2.094;2023-04-21T08:43:39;99958.61;;;16.68;31.36
73242;BME280;65659;49.234;-2.094;2023-04-21T08:46:02;99955.53;;;16.77;30.68
73242;BME280;65659;49.234;-2.094;2023-04-21T08:48:27;99953.53;;;16.82;30.59
73242;BME280;65659;49.234;-2.094;2023-04-21T08:50:52;99949.44;;;16.89;30.31
73242;BME280;65659;49.234;-2.094;2023-04-21T08:53:19;99948.47;;;17.06;30.45
73242;BME280;65659;49.234;-2.094;2023-04-21T08:55:46;99948.19;;;16.76;30.31
73242;BME280;65659;49.234;-2.094;2023-04-21T08:58:12;99944.64;;;16.85;30.16
73242;BME280;65659;49.234;-2.094;2023-04-21T09:00:37;99947.35;;;17.02;30.15
73242;BME280;65659;49.234;-2.094;2023-04-21T09:03:00;99947.05;;;17.11;30.05
73242;BME280;65659;49.234;-2.094;2023-04-21T09:05:25;99944.39;;;17.20;30.05
73242;BME280;65659;49.234;-2.094;2023-04-21T09:07:50;99943.80;;;17.29;29.99
73242;BME280;65659;49.234;-2.094;2023-04-21T09:10:15;99947.33;;;17.42;29.95
73242;BME280;65659;49.234;-2.094;2023-04-21T09:12:40;99942.70;;;17.50;29.91
73242;BME280;65659;49.234;-2.094;2023-04-21T09:15:10;99943.25;;;18.48;29.72
73242;BME280;65659;49.234;-2.094;2023-04-21T09:17:32;99945.52;;;17.38;29.92
73242;BME280;65659;49.234;-2.094;2023-04-21T09:19:57;99945.63;;;17.40;29.71
73242;BME280;65659;49.234;-2.094;2023-04-21T09:22:26;99944.08;;;17.49;29.36
73242;BME280;65659;49.234;-2.094;2023-04-21T09:24:47;99947.57;;;17.39;29.14
73242;BME280;65659;49.234;-2.094;2023-04-21T09:27:10;99941.66;;;18.72;29.23
73242;BME280;65659;49.234;-2.094;2023-04-21T09:29:45;99948.17;;;18.50;30.46
73242;BME280;65659;49.234;-2.094;2023-04-21T09:32:02;99944.90;;;16.79;30.43
73242;BME280;65659;49.234;-2.094;2023-04-21T09:34:27;99938.30;;;18.14;29.79
73242;BME280;65659;49.234;-2.094;2023-04-21T09:36:58;99932.35;;;18.55;30.58
73242;BME280;65659;49.234;-2.094;2023-04-21T09:39:22;99929.63;;;18.11;31.67
73242;BME280;65659;49.234;-2.094;2023-04-21T09:41:44;99929.21;;;17.62;32.54
73242;BME280;65659;49.234;-2.094;2023-04-21T09:44:12;99924.69;;;16.19;31.72
73242;BME280;65659;49.234;-2.094;2023-04-21T09:46:37;99919.50;;;17.12;30.24
73242;BME280;65659;49.234;-2.094;2023-04-21T09:49:03;99920.22;;;17.55;29.31
73242;BME280;65659;49.234;-2.094;2023-04-21T09:51:29;99920.24;;;18.20;28.58
73242;BME280;65659;49.234;-2.094;2023-04-21T09:53:57;99918.43;;;17.80;28.60
73242;BME280;65659;49.234;-2.094;2023-04-21T09:56:23;99917.39;;;17.99;28.29
73242;BME280;65659;49.234;-2.094;2023-04-21T09:58:47;99915.19;;;18.09;28.47
73242;BME280;65659;49.234;-2.094;2023-04-21T10:01:14;99913.74;;;18.18;28.11
73242;BME280;65659;49.234;-2.094;2023-04-21T10:03:42;99915.82;;;18.10;28.06
73242;BME280;65659;49.234;-2.094;2023-04-21T10:06:04;99914.67;;;18.50;27.89
73242;BME280;65659;49.234;-2.094;2023-04-21T10:08:28;99914.87;;;18.24;27.78
73242;BME280;65659;49.234;-2.094;2023-04-21T10:10:53;99909.65;;;18.34;27.44
73242;BME280;65659;49.234;-2.094;2023-04-21T10:13:17;99906.49;;;18.15;27.81
73242;BME280;65659;49.234;-2.094;2023-04-21T10:15:43;99903.53;;;18.41;27.31
73242;BME280;65659;49.234;-2.094;2023-04-21T10:18:15;99902.98;;;18.75;27.32
73242;BME280;65659;49.234;-2.094;2023-04-21T10:22:59;99900.36;;;18.39;27.18
73242;BME280;65659;49.234;-2.094;2023-04-21T10:25:29;99903.68;;;18.39;27.30
73242;BME280;65659;49.234;-2.094;2023-04-21T10:27:51;99902.95;;;18.91;27.26
73242;BME280;65659;49.234;-2.094;2023-04-21T10:30:23;99899.77;;;18.53;26.98
73242;BME280;65659;49.234;-2.094;2023-04-21T10:32:41;99897.97;;;19.00;27.00
73242;BME280;65659;49.234;-2.094;2023-04-21T10:35:09;99894.66;;;18.90;27.19
73242;BME280;65659;49.234;-2.094;2023-04-21T10:37:32;99886.62;;;18.71;27.12
73242;BME280;65659;49.234;-2.094;2023-04-21T10:39:57;99885.18;;;18.68;26.87
73242;BME280;65659;49.234;-2.094;2023-04-21T10:42:27;99885.90;;;19.31;26.68
73242;BME280;65659;49.234;-2.094;2023-04-21T10:45:04;99882.58;;;19.20;26.58
73242;BME280;65659;49.234;-2.094;2023-04-21T10:49:40;99872.14;;;18.43;26.89
73242;BME280;65659;49.234;-2.094;2023-04-21T10:52:08;99865.06;;;18.83;26.47
73242;BME280;65659;49.234;-2.094;2023-04-21T10:54:41;99856.08;;;18.92;26.32
73242;BME280;65659;49.234;-2.094;2023-04-21T10:56:58;99854.46;;;19.13;26.15
73242;BME280;65659;49.234;-2.094;2023-04-21T10:59:27;99853.39;;;19.31;26.01
73242;BME280;65659;49.234;-2.094;2023-04-21T11:01:49;99850.65;;;19.33;25.88
73242;BME280;65659;49.234;-2.094;2023-04-21T11:04:17;99845.77;;;19.90;25.66
73242;BME280;65659;49.234;-2.094;2023-04-21T11:06:40;99840.59;;;19.47;25.80
73242;BME280;65659;49.234;-2.094;2023-04-21T11:09:08;99838.66;;;19.37;25.83
73242;BME280;65659;49.234;-2.094;2023-04-21T11:11:30;99835.17;;;19.70;25.87
73242;BME280;65659;49.234;-2.094;2023-04-21T11:14:00;99833.20;;;20.13;26.13
73242;BME280;65659;49.234;-2.094;2023-04-21T11:16:20;99834.66;;;20.17;26.15
73242;BME280;65659;49.234;-2.094;2023-04-21T11:18:49;99833.54;;;19.32;26.38
73242;BME280;65659;49.234;-2.094;2023-04-21T11:21:14;99833.06;;;19.79;25.87
73242;BME280;65659;49.234;-2.094;2023-04-21T11:23:39;99827.44;;;20.04;25.69
73242;BME280;65659;49.234;-2.094;2023-04-21T11:26:02;99827.12;;;20.21;25.37
73242;BME280;65659;49.234;-2.094;2023-04-21T11:28:34;99824.67;;;20.96;25.26
73242;BME280;65659;49.234;-2.094;2023-04-21T11:30:56;99821.64;;;20.57;25.54
73242;BME280;65659;49.234;-2.094;2023-04-21T11:33:19;99826.12;;;20.10;25.38
73242;BME280;65659;49.234;-2.094;2023-04-21T11:35:46;99818.15;;;20.19;25.04
73242;BME280;65659;49.234;-2.094;2023-04-21T11:38:10;99822.71;;;20.43;24.78
73242;BME280;65659;49.234;-2.094;2023-04-21T11:40:45;99819.88;;;20.51;24.57
73242;BME280;65659;49.234;-2.094;2023-04-21T11:43:02;99818.78;;;21.50;24.29
73242;BME280;65659;49.234;-2.094;2023-04-21T11:45:28;99821.15;;;20.39;24.63
73242;BME280;65659;49.234;-2.094;2023-04-21T11:50:30;99815.60;;;20.70;24.00
73242;BME280;65659;49.234;-2.094;2023-04-21T11:52:43;99813.56;;;20.74;24.17
73242;BME280;65659;49.234;-2.094;2023-04-21T11:55:13;99809.76;;;20.87;23.85
73242;BME280;65659;49.234;-2.094;2023-04-21T11:57:54;99806.90;;;21.45;23.95
73242;BME280;65659;49.234;-2.094;2023-04-21T12:07:22;99810.96;;;20.43;24.10
73242;BME280;65659;49.234;-2.094;2023-04-21T12:09:43;99808.16;;;21.06;23.50
73242;BME280;65659;49.234;-2.094;2023-04-21T12:12:10;99803.98;;;21.94;23.26
73242;BME280;65659;49.234;-2.094;2023-04-21T12:14:38;99805.74;;;21.18;23.76
73242;BME280;65659;49.234;-2.094;2023-04-21T12:16:59;99807.20;;;21.54;22.78
73242;BME280;65659;49.234;-2.094;2023-04-21T12:19:24;99808.10;;;21.84;22.44
73242;BME280;65659;49.234;-2.094;2023-04-21T12:21:53;99809.44;;;22.04;22.84
73242;BME280;65659;49.234;-2.094;2023-04-21T12:24:16;99805.14;;;22.04;22.04
73242;BME280;65659;49.234;-2.094;2023-04-21T12:26:41;99803.85;;;22.54;21.95
73242;BME280;65659;49.234;-2.094;2023-04-21T12:29:05;99802.58;;;22.79;21.42
73242;BME280;65659;49.234;-2.094;2023-04-21T12:31:33;99802.51;;;22.85;20.98
73242;BME280;65659;49.234;-2.094;2023-04-21T12:33:57;99798.25;;;22.67;20.53
73242;BME280;65659;49.234;-2.094;2023-04-21T12:36:22;99793.20;;;23.06;20.33
73242;BME280;65659;49.234;-2.094;2023-04-21T12:38:48;99797.70;;;23.29;20.39
73242;BME280;65659;49.234;-2.094;2023-04-21T12:41:14;99797.76;;;23.34;20.01
73242;BME280;65659;49.234;-2.094;2023-04-21T12:43:40;99790.97;;;23.40;19.75
73242;BME280;65659;49.234;-2.094;2023-04-21T12:46:05;99787.50;;;23.34;19.83
73242;BME280;65659;49.234;-2.094;2023-04-21T12:48:30;99789.82;;;23.70;19.78
73242;BME280;65659;49.234;-2.094;2023-04-21T12:50:54;99788.80;;;23.58;19.53
73242;BME280;65659;49.234;-2.094;2023-04-21T12:53:22;99792.24;;;23.90;19.89
73242;BME280;65659;49.234;-2.094;2023-04-21T12:55:44;99791.29;;;23.96;19.38
73242;BME280;65659;49.234;-2.094;2023-04-21T12:58:10;99787.15;;;24.11;19.26
73242;BME280;65659;49.234;-2.094;2023-04-21T13:00:36;99784.91;;;23.89;19.33
73242;BME280;65659;49.234;-2.094;2023-04-21T13:03:01;99782.02;;;23.98;19.20